createdAt,value
2022-12-08T00:00:13.562Z,108.00
2022-12-08T00:02:42.563Z,116.22
2022-12-08T00:05:28.489Z,114.07
2022-12-08T00:08:14.192Z,117.20
2022-12-08T00:10:49.281Z,106.13
2022-12-08T00:13:16.836Z,104.50
2022-12-08T00:15:43.616Z,101.53
2022-12-08T00:18:10.441Z,98.07
2022-12-08T00:20:37.300Z,113.03
2022-12-08T00:23:04.546Z,97.43
2022-12-08T00:25:32.108Z,97.40
2022-12-08T00:27:58.928Z,88.57
2022-12-08T00:30:25.775Z,100.47
2022-12-08T00:32:52.661Z,100.10
2022-12-08T00:35:19.581Z,103.50
2022-12-08T00:37:46.831Z,98.13
2022-12-08T03:58:55.131Z,68.43
2022-12-08T04:01:22.511Z,61.73
2022-12-08T04:03:49.911Z,63.50
2022-12-08T04:06:17.019Z,60.83
2022-12-08T04:08:44.204Z,69.30
2022-12-08T04:11:11.730Z,71.13
2022-12-08T04:13:40.101Z,77.00
2022-12-08T04:16:08.344Z,71.53
2022-12-08T04:18:36.080Z,64.23
2022-12-08T04:21:03.142Z,67.73
2022-12-08T07:08:33.678Z,101.90
2022-12-08T07:11:00.568Z,121.13
2022-12-08T07:13:27.398Z,132.63
2022-12-08T07:15:54.239Z,107.33
2022-12-08T07:18:21.714Z,89.57
2022-12-08T07:20:48.620Z,84.27
2022-12-08T07:23:15.596Z,72.30
2022-12-08T07:25:42.488Z,55.50
2022-12-08T07:28:11.866Z,51.03
2022-12-08T07:30:41.295Z,47.83
2022-12-08T07:33:08.205Z,42.13
2022-12-08T07:35:35.440Z,48.43
2022-12-08T07:38:02.683Z,35.20
2022-12-08T07:40:29.717Z,38.37
2022-12-08T07:42:56.669Z,32.47
2022-12-08T07:45:29.780Z,34.43
2022-12-08T07:47:58.273Z,33.77
2022-12-08T07:50:25.061Z,33.30
2022-12-08T07:52:51.854Z,31.87
2022-12-08T07:55:18.678Z,34.70
2022-12-08T07:57:45.566Z,32.05
2022-12-08T08:00:12.927Z,36.30
2022-12-08T08:02:40.342Z,32.83
2022-12-08T08:05:08.078Z,36.90
2022-12-08T08:07:35.207Z,36.95
2022-12-08T08:10:02.286Z,31.77
2022-12-08T08:12:32.091Z,34.30
2022-12-08T08:15:01.115Z,34.33
2022-12-08T08:17:29.829Z,43.58
2022-12-08T08:19:57.024Z,52.33
2022-12-08T08:22:25.360Z,51.40
2022-12-08T08:24:52.748Z,63.07
2022-12-08T08:27:20.126Z,60.83
2022-12-08T08:29:46.902Z,59.33
2022-12-08T08:32:16.876Z,53.00
2022-12-08T08:34:43.719Z,59.23
2022-12-08T08:37:10.578Z,56.37
2022-12-08T08:39:37.474Z,60.40
2022-12-08T08:42:04.537Z,55.47
2022-12-08T08:44:36.521Z,53.77
2022-12-08T08:47:05.912Z,57.90
2022-12-08T08:51:59.717Z,53.97
2022-12-08T08:54:29.964Z,60.63
2022-12-08T08:57:01.698Z,57.27
2022-12-08T08:59:31.598Z,58.50
2022-12-08T09:01:59.926Z,50.37
2022-12-08T09:04:29.213Z,54.17
2022-12-08T09:09:26.723Z,44.63
2022-12-08T09:11:55.824Z,49.23
2022-12-08T09:14:23.790Z,47.27
2022-12-08T09:16:53.149Z,36.73
2022-12-08T09:19:22.488Z,35.60
2022-12-08T09:21:49.376Z,34.40
2022-12-08T09:24:18.017Z,31.23
2022-12-08T09:26:45.670Z,30.00
2022-12-08T09:29:14.356Z,25.77
2022-12-08T09:31:42.183Z,30.05
2022-12-08T09:34:12.242Z,27.97
2022-12-08T09:36:40.411Z,27.15
2022-12-08T09:39:07.825Z,25.05
2022-12-08T09:41:54.362Z,24.48
2022-12-08T09:44:30.575Z,25.85
2022-12-08T09:47:00.813Z,33.17
2022-12-08T09:50:17.208Z,22.83
2022-12-08T09:53:00.010Z,20.13
2022-12-08T09:55:55.992Z,24.67
2022-12-08T09:58:41.619Z,34.45
2022-12-08T10:01:12.283Z,32.47
2022-12-08T10:03:41.639Z,23.48
2022-12-08T10:09:12.790Z,18.52
2022-12-08T10:11:56.177Z,17.92
2022-12-08T10:14:55.008Z,17.00
2022-12-08T10:17:26.810Z,15.18
2022-12-08T10:20:04.261Z,17.50
2022-12-08T10:22:37.704Z,17.85
2022-12-08T10:25:32.333Z,14.68
2022-12-08T10:27:59.415Z,20.25
2022-12-08T10:30:26.499Z,19.60
2022-12-08T10:32:55.202Z,18.00
2022-12-08T10:35:25.397Z,18.73
2022-12-08T10:37:56.773Z,18.83
2022-12-08T10:40:27.444Z,20.17
2022-12-08T10:42:57.570Z,18.60
2022-12-08T10:45:45.174Z,23.55
2022-12-08T10:48:29.537Z,24.52
2022-12-08T10:50:58.182Z,26.45
2022-12-08T10:53:44.677Z,33.13
2022-12-08T10:56:18.319Z,22.40
2022-12-08T10:58:47.562Z,21.77
2022-12-08T11:01:21.234Z,45.05
2022-12-08T11:03:51.359Z,19.92
2022-12-08T11:06:20.189Z,18.63
2022-12-08T11:08:54.133Z,19.17
2022-12-08T11:11:29.120Z,18.73
2022-12-08T11:13:56.662Z,22.13
2022-12-08T11:16:23.938Z,21.80
2022-12-08T11:18:58.456Z,17.08
2022-12-08T11:21:37.210Z,18.67
2022-12-08T11:24:22.829Z,24.65
2022-12-08T11:27:09.173Z,19.50
2022-12-08T11:29:36.293Z,19.25
2022-12-08T11:32:07.642Z,18.38
2022-12-08T11:34:52.136Z,13.90
2022-12-08T11:37:41.491Z,13.02
2022-12-08T11:40:17.946Z,16.20
2022-12-08T11:43:06.446Z,15.13
2022-12-08T11:45:36.516Z,15.93
2022-12-08T11:48:11.372Z,15.55
2022-12-08T11:50:59.771Z,12.52
2022-12-08T11:54:03.797Z,14.48
2022-12-08T11:56:47.243Z,16.30
2022-12-08T11:59:29.657Z,15.43
2022-12-08T12:02:01.944Z,15.80
2022-12-08T12:04:37.654Z,15.32
2022-12-08T12:07:33.529Z,15.45
2022-12-08T12:10:19.979Z,18.90
2022-12-08T12:13:15.781Z,14.85
2022-12-08T12:16:06.843Z,13.77
2022-12-08T12:18:50.913Z,15.05
2022-12-08T12:21:31.466Z,13.55
2022-12-08T12:24:07.165Z,19.23
2022-12-08T12:27:03.220Z,15.93
2022-12-08T12:29:34.049Z,12.30
2022-12-08T12:32:04.909Z,11.23
2022-12-08T12:34:35.144Z,14.02
2022-12-08T12:37:17.371Z,15.25
2022-12-08T12:39:53.635Z,12.20
2022-12-08T12:42:43.721Z,14.70
2022-12-08T12:45:32.114Z,14.35
2022-12-08T12:48:02.257Z,15.07
2022-12-08T12:50:35.213Z,16.25
2022-12-08T12:53:26.481Z,18.30
2022-12-08T12:55:57.703Z,17.50
2022-12-08T12:58:27.601Z,20.23
2022-12-08T13:01:17.149Z,18.13
2022-12-08T13:04:02.508Z,18.85
2022-12-08T13:06:52.491Z,17.70
2022-12-08T13:09:33.987Z,20.30
2022-12-08T13:12:10.241Z,19.10
2022-12-08T13:15:02.540Z,18.98
2022-12-08T13:17:33.990Z,16.98
2022-12-08T13:20:05.489Z,18.23
2022-12-08T13:23:10.979Z,18.73
2022-12-08T13:25:40.743Z,25.58
2022-12-08T13:28:34.015Z,22.27
2022-12-08T13:31:02.536Z,17.23
2022-12-08T13:33:41.303Z,16.77
2022-12-08T13:36:21.489Z,15.88
2022-12-08T13:38:54.271Z,13.88
2022-12-08T13:41:24.926Z,17.00
2022-12-08T13:45:03.603Z,15.77
2022-12-08T13:47:25.128Z,16.10
2022-12-08T13:50:55.732Z,16.13
2022-12-08T13:58:36.804Z,12.73
2022-12-08T14:01:25.563Z,15.60
2022-12-08T14:04:33.742Z,14.70
2022-12-08T14:06:48.914Z,15.10
2022-12-08T14:09:22.185Z,13.40
2022-12-08T14:11:58.559Z,18.60
2022-12-08T14:15:02.554Z,18.65
2022-12-08T14:17:30.446Z,19.02
2022-12-08T14:20:02.663Z,19.52
2022-12-08T14:22:35.096Z,22.67
2022-12-08T14:25:10.653Z,20.77
2022-12-08T14:27:38.181Z,18.48
2022-12-08T14:30:20.038Z,17.23
2022-12-08T14:32:53.147Z,21.65
2022-12-08T14:35:31.218Z,18.00
2022-12-08T14:38:04.084Z,19.63
2022-12-08T14:40:35.340Z,21.05
2022-12-08T14:43:08.338Z,19.08
2022-12-08T14:45:41.524Z,21.63
2022-12-08T14:48:38.618Z,22.50
2022-12-08T14:51:21.121Z,23.90
2022-12-08T14:54:00.145Z,27.08
2022-12-08T14:56:33.789Z,27.15
2022-12-08T14:59:06.735Z,30.40
2022-12-08T15:01:34.623Z,29.88
2022-12-08T15:04:08.651Z,24.35
2022-12-08T15:06:36.318Z,23.98
2022-12-08T15:09:17.997Z,28.13
2022-12-08T15:11:44.909Z,25.10
2022-12-08T15:14:30.697Z,25.27
2022-12-08T15:16:57.744Z,23.77
2022-12-08T15:19:34.071Z,25.80
2022-12-08T15:22:18.626Z,23.27
2022-12-08T15:24:45.564Z,23.77
2022-12-08T15:27:19.022Z,25.73
2022-12-08T15:29:47.342Z,23.52
2022-12-08T15:32:18.155Z,24.38
2022-12-08T15:34:45.214Z,29.50
2022-12-08T15:37:26.600Z,27.42
2022-12-08T15:39:54.000Z,28.65
2022-12-08T15:42:20.806Z,29.52
2022-12-08T15:44:47.669Z,30.23
2022-12-08T15:47:17.039Z,32.53
2022-12-08T15:49:44.324Z,32.03
2022-12-08T15:52:16.909Z,40.83
2022-12-08T15:54:44.053Z,45.10
2022-12-08T16:09:33.778Z,65.40
2022-12-08T16:12:19.491Z,68.95
2022-12-08T16:15:47.334Z,30.67
2022-12-08T16:17:35.427Z,38.72
2022-12-08T16:20:03.676Z,48.65
2022-12-08T16:25:21.779Z,44.22
2022-12-08T16:30:37.829Z,33.08
2022-12-08T16:33:05.484Z,40.47
2022-12-08T16:35:34.524Z,44.97
2022-12-08T16:38:02.574Z,46.22
2022-12-08T16:40:33.738Z,46.22
2022-12-08T16:43:00.785Z,53.97
2022-12-08T16:45:29.889Z,50.63
2022-12-08T16:48:01.259Z,58.50
2022-12-08T16:50:31.145Z,39.87
2022-12-08T16:53:02.253Z,37.00
2022-12-08T16:55:29.655Z,29.00
2022-12-08T16:57:57.887Z,36.23
2022-12-08T17:00:27.105Z,24.90
2022-12-08T17:02:55.975Z,28.00
2022-12-08T17:05:24.793Z,25.70
2022-12-08T17:07:59.847Z,22.77
2022-12-08T17:10:29.639Z,23.30
2022-12-08T17:12:56.839Z,23.43
2022-12-08T17:15:25.913Z,23.70
2022-12-08T17:17:53.993Z,27.02
2022-12-08T17:20:24.571Z,25.77
2022-12-08T17:22:59.044Z,23.90
2022-12-08T17:25:28.282Z,29.50
2022-12-08T17:27:56.588Z,21.37
2022-12-08T17:30:23.655Z,25.00
2022-12-08T17:32:52.904Z,23.40
2022-12-08T17:35:20.865Z,27.80
2022-12-08T17:37:48.008Z,24.67
2022-12-08T17:40:14.863Z,24.93
2022-12-08T17:42:42.520Z,29.60
2022-12-08T17:45:12.480Z,24.93
2022-12-08T17:47:39.554Z,24.27
2022-12-08T17:50:07.521Z,25.03
2022-12-08T17:52:34.759Z,26.33
2022-12-08T17:55:01.709Z,24.93
2022-12-08T17:57:29.302Z,21.83
2022-12-08T17:59:57.113Z,21.10
2022-12-08T18:02:26.474Z,20.90
2022-12-08T18:07:20.642Z,25.47
2022-12-08T18:09:47.728Z,25.40
2022-12-08T18:12:19.302Z,20.80
2022-12-08T18:14:50.628Z,22.80
2022-12-08T18:17:17.507Z,25.93
2022-12-08T18:19:44.389Z,21.47
2022-12-08T18:22:12.406Z,22.37
2022-12-08T18:24:39.300Z,26.33
2022-12-08T18:27:06.161Z,21.43
2022-12-08T18:29:33.335Z,20.83
2022-12-08T18:32:00.269Z,28.53
2022-12-08T18:34:27.579Z,24.97
2022-12-08T18:36:54.393Z,23.60
2022-12-08T18:39:30.400Z,40.23
2022-12-08T18:41:58.642Z,19.00
2022-12-08T18:44:25.499Z,26.83
2022-12-08T18:46:52.406Z,28.20
2022-12-08T18:49:22.982Z,27.90
2022-12-08T18:51:49.878Z,19.60
2022-12-08T18:54:16.780Z,23.57
2022-12-08T18:56:44.065Z,23.53
2022-12-08T18:59:12.552Z,20.57
2022-12-08T19:01:40.186Z,23.80
2022-12-08T19:04:28.056Z,28.87
2022-12-08T19:06:56.625Z,27.40
2022-12-08T19:09:24.643Z,22.10
2022-12-08T19:11:52.049Z,19.57
2022-12-08T19:14:25.759Z,20.40
2022-12-08T19:16:54.721Z,21.37
2022-12-08T19:19:22.288Z,19.83
2022-12-08T19:21:49.186Z,19.43
2022-12-08T19:24:16.175Z,22.03
2022-12-08T19:26:43.320Z,21.97
2022-12-08T19:29:11.777Z,24.03
2022-12-08T19:31:40.612Z,24.10
2022-12-08T19:34:09.517Z,21.27
2022-12-08T19:36:42.480Z,16.58
2022-12-08T19:39:35.325Z,22.13
2022-12-08T19:42:27.082Z,20.17
2022-12-08T19:44:54.208Z,16.93
2022-12-08T19:47:26.695Z,20.27
2022-12-08T19:50:15.227Z,18.27
2022-12-08T19:52:42.759Z,23.92
2022-12-08T19:55:12.693Z,18.43
2022-12-08T19:57:39.653Z,22.40
2022-12-08T20:00:08.651Z,22.70
2022-12-08T20:02:36.837Z,22.67
2022-12-08T20:05:05.942Z,22.27
2022-12-08T20:07:34.074Z,18.65
2022-12-08T20:10:04.953Z,22.50
2022-12-08T20:12:32.004Z,17.50
2022-12-08T20:14:58.829Z,21.37
2022-12-08T20:17:25.729Z,19.83
2022-12-08T20:19:52.678Z,20.47
2022-12-08T20:22:20.734Z,23.03
2022-12-08T20:24:58.260Z,18.53
2022-12-08T20:27:28.726Z,21.48
2022-12-08T20:29:56.553Z,23.60
2022-12-08T20:32:23.363Z,29.30
2022-12-08T20:34:50.287Z,29.50
2022-12-08T20:37:17.103Z,34.03
2022-12-08T20:39:44.078Z,35.67
2022-12-08T20:42:14.069Z,34.20
2022-12-08T20:44:44.618Z,28.73
2022-12-08T20:47:13.118Z,27.47
2022-12-08T20:49:40.100Z,26.60
2022-12-08T20:52:07.680Z,25.90
2022-12-08T20:54:35.436Z,25.07
2022-12-08T20:57:02.683Z,28.93
2022-12-08T20:59:29.660Z,24.30
2022-12-08T21:01:57.138Z,25.10
2022-12-08T21:04:24.596Z,21.03
2022-12-08T21:06:51.877Z,23.97
2022-12-08T21:09:19.176Z,23.80
2022-12-08T21:11:47.551Z,25.30
2022-12-08T21:14:14.622Z,28.40
2022-12-08T21:16:42.927Z,22.47
2022-12-08T21:19:11.632Z,29.93
2022-12-08T21:21:39.080Z,33.03
2022-12-08T21:24:06.564Z,29.03
2022-12-08T21:26:33.468Z,25.90
2022-12-08T21:29:00.396Z,32.03
2022-12-08T21:31:29.510Z,28.33
2022-12-08T21:33:57.733Z,26.58
2022-12-08T21:36:25.975Z,29.20
2022-12-08T21:38:54.897Z,29.07
2022-12-08T21:41:42.486Z,27.20
2022-12-08T21:44:11.934Z,24.00
2022-12-08T21:49:06.709Z,25.83
2022-12-08T21:51:37.883Z,23.27
2022-12-08T21:54:05.544Z,22.77
2022-12-08T21:56:32.637Z,24.13
2022-12-08T21:58:59.561Z,25.97
2022-12-08T22:01:26.590Z,27.80
2022-12-08T22:03:53.828Z,25.87
2022-12-08T22:06:23.535Z,23.30
2022-12-08T22:08:50.524Z,20.97
2022-12-08T22:11:18.332Z,23.07
2022-12-08T22:13:45.379Z,21.47
2022-12-08T22:16:15.060Z,21.07
2022-12-08T22:18:42.585Z,23.10
2022-12-08T22:21:17.234Z,23.33
2022-12-08T22:23:44.581Z,22.03
2022-12-08T22:26:12.212Z,23.47
2022-12-08T22:28:42.941Z,22.90
2022-12-08T22:31:12.686Z,22.57
2022-12-08T22:33:41.052Z,21.60
2022-12-08T22:36:13.691Z,20.73
2022-12-08T22:38:41.390Z,26.27
2022-12-08T22:41:08.500Z,37.13
2022-12-08T22:43:36.750Z,32.13
2022-12-08T22:46:14.593Z,37.10
2022-12-08T22:48:41.948Z,30.67
2022-12-08T22:51:09.599Z,33.07
2022-12-08T22:53:37.570Z,30.83
2022-12-08T22:56:10.007Z,26.63
2022-12-08T22:58:38.501Z,23.13
2022-12-08T23:01:06.083Z,28.67
2022-12-08T23:03:33.963Z,28.43
2022-12-08T23:06:02.266Z,28.87
2022-12-08T23:08:29.488Z,32.50
2022-12-08T23:10:56.481Z,31.80
2022-12-08T23:13:23.560Z,30.07
2022-12-08T23:15:50.474Z,29.57
2022-12-08T23:18:19.360Z,31.40
2022-12-08T23:20:47.891Z,27.33
2022-12-08T23:23:15.488Z,33.97
2022-12-08T23:25:44.015Z,32.43
2022-12-08T23:28:11.403Z,31.00
2022-12-08T23:30:43.164Z,28.00
2022-12-08T23:33:12.039Z,31.57
2022-12-08T23:35:39.042Z,24.57
2022-12-08T23:38:05.860Z,31.07
2022-12-08T23:40:32.854Z,26.80
2022-12-08T23:42:59.662Z,28.50
2022-12-08T23:45:26.501Z,26.60
2022-12-08T23:47:53.670Z,25.70
2022-12-08T23:50:20.596Z,28.37
2022-12-08T23:52:47.424Z,23.50
2022-12-08T23:55:14.222Z,23.70
2022-12-08T23:57:41.051Z,24.67
